Time;durP1;ratioP1;P1;durP2;ratioP2;P2;SDS_P1;SDS_P2;PMS_P1;PMS_P2;Temp;Humidity;BMP_temperature;BMP_pressure;BME280_temperature;BME280_humidity;BME280_pressure;Samples;Min_cycle;Max_cycle;Signal;HPM_P1;HPM_P2
2022/12/03 00:02:22;;;;;;;;;;;;;;;-144.99;92.82;52643.78;5067600;28;19952;-75
2022/12/03 00:04:48;;;;;;;;;;;;;;;-144.99;93.85;52619.31;5074702;28;19927;-76
2022/12/03 00:07:15;;;;;;;;;;;;;;;-144.99;93.52;52627.47;5056415;28;19995;-74
2022/12/03 00:09:41;;;;;;;;;;;;;;;-144.99;93.64;52627.47;5045744;28;19949;-72
2022/12/03 00:12:08;;;;;;;;;;;;;;;-144.99;93.64;52670.28;5044084;28;19974;-75
2022/12/03 00:14:36;;;;;;;;;;;;;;;-144.99;93.78;52643.78;5050039;28;20022;-73
2022/12/03 00:17:03;;;;;;;;;;;;;;;-144.99;94.06;52639.69;5061048;28;19972;-74
2022/12/03 00:19:29;;;;;;;;;;;;;;;-144.99;93.97;52627.47;5054725;28;19933;-73
2022/12/03 00:21:56;;;;;;;;;;;;;;;-144.99;93.66;52647.84;5043735;28;19950;-72
2022/12/03 00:24:22;;;;;;;;;;;;;;;-144.99;93.26;52662.13;5052059;28;19925;-74
2022/12/03 00:26:49;;;;;;;;;;;;;;;-144.99;93.14;52643.78;5061835;28;20470;-75
2022/12/03 00:29:15;;;;;;;;;;;;;;;-144.99;92.77;52627.47;5069754;28;19944;-73
2022/12/03 00:31:44;;;;;;;;;;;;;;;-144.99;92.59;52635.63;5068107;28;19932;-74
2022/12/03 00:34:10;;;;;;;;;;;;;;;-144.99;92.28;52700.84;5058003;28;19938;-74
2022/12/03 00:36:37;;;;;;;;;;;;;;;-144.99;91.53;52645.81;5061681;28;19982;-72
2022/12/03 00:39:04;;;;;;;;;;;;;;;-144.99;91.56;52668.22;5054082;28;19946;-72
2022/12/03 00:41:30;;;;;;;;;;;;;;;-144.99;91.51;52656.00;5046284;28;19949;-73
2022/12/03 00:43:57;;;;;;;;;;;;;;;-144.99;91.12;52631.53;5064126;28;20226;-72
2022/12/03 00:46:23;;;;;;;;;;;;;;;-144.99;90.70;52651.94;5055472;28;19986;-73
2022/12/03 00:48:51;;;;;;;;;;;;;;;-144.99;90.67;52615.25;5058738;28;19968;-73
2022/12/03 00:51:18;;;;;;;;;;;;;;;-144.99;89.97;52676.38;5053009;28;19950;-71
2022/12/03 00:53:45;;;;;;;;;;;;;;;-144.99;90.13;52639.69;5051615;28;19982;-75
2022/12/03 00:56:11;;;;;;;;;;;;;;;-144.99;89.93;52668.22;5052984;28;20417;-72
2022/12/03 00:58:38;;;;;;;;;;;;;;;-144.99;89.77;52647.84;5063886;28;19943;-74
2022/12/03 01:01:04;;;;;;;;;;;;;;;-144.99;90.21;52680.47;5041577;28;19983;-73
2022/12/03 01:03:31;;;;;;;;;;;;;;;-144.99;90.04;52664.16;5040550;28;19951;-74
2022/12/03 01:05:58;;;;;;;;;;;;;;;-144.99;90.11;52647.84;5050327;28;19956;-72
2022/12/03 01:08:25;;;;;;;;;;;;;;;-144.99;90.56;52619.31;5046689;28;19989;-74
2022/12/03 01:10:51;;;;;;;;;;;;;;;-144.99;90.97;52639.69;5039315;28;19976;-72
2022/12/03 01:13:18;;;;;;;;;;;;;;;-144.99;90.85;52647.84;5055670;28;19944;-73
2022/12/03 01:15:44;;;;;;;;;;;;;;;-144.99;90.72;52662.13;5052223;28;20377;-73
2022/12/03 01:18:11;;;;;;;;;;;;;;;-144.99;90.78;52603.00;5038855;28;20022;-75
2022/12/03 01:20:38;;;;;;;;;;;;;;;-144.99;91.21;52623.38;5031331;28;20010;-73
2022/12/03 01:23:06;;;;;;;;;;;;;;;-144.99;90.63;52643.78;5031473;28;20370;-72
2022/12/03 01:25:35;;;;;;;;;;;;;;;-144.99;90.46;52641.72;5041369;28;20047;-72
2022/12/03 01:28:02;;;;;;;;;;;;;;;-144.99;90.52;52684.53;5044636;28;20065;-73
2022/12/03 01:32:15;;;;;;;;;;;;;;;-144.99;90.83;52615.25;5032769;28;19997;-73
2022/12/03 01:33:14;;;;;;;;;;;;;;;-144.99;90.70;52660.09;5031749;28;20331;-73
2022/12/03 01:35:40;;;;;;;;;;;;;;;-144.99;90.31;52643.78;5035641;28;19959;-73
2022/12/03 01:38:08;;;;;;;;;;;;;;;-144.99;90.13;52643.78;5031572;28;19956;-75
2022/12/03 01:40:35;;;;;;;;;;;;;;;-144.99;90.07;52627.47;5031134;28;19953;-71
2022/12/03 01:43:01;;;;;;;;;;;;;;;-144.99;89.78;52635.63;5043516;28;19940;-72
2022/12/03 01:45:28;;;;;;;;;;;;;;;-144.99;89.52;52651.94;5040772;28;20439;-72
2022/12/03 01:47:54;;;;;;;;;;;;;;;-144.99;89.32;52647.84;5043502;28;19986;-73
2022/12/03 01:50:23;;;;;;;;;;;;;;;-144.99;88.87;52647.84;5047800;28;19963;-72
2022/12/03 01:52:49;;;;;;;;;;;;;;;-144.99;89.12;52643.78;5039593;28;20042;-73
2022/12/03 01:55:20;;;;;;;;;;;;;;;-144.99;88.77;52676.38;5032700;28;20024;-73
2022/12/03 01:57:48;;;;;;;;;;;;;;;-144.99;88.34;52647.84;5042017;28;20457;-72
2022/12/03 02:02:44;;;;;;;;;;;;;;;-144.99;88.54;52635.63;4676117;28;9999655;-71
2022/12/03 02:05:15;;;;;;;;;;;;;;;-144.99;88.06;52692.69;5034790;28;20045;-74
2022/12/03 02:07:41;;;;;;;;;;;;;;;-144.99;87.84;52647.84;5036625;28;20454;-73
2022/12/03 02:10:08;;;;;;;;;;;;;;;-144.99;87.88;52635.63;5034974;28;19947;-75
2022/12/03 02:12:38;;;;;;;;;;;;;;;-144.99;87.90;52631.53;5025180;28;20509;-74
2022/12/03 02:15:05;;;;;;;;;;;;;;;-144.99;87.36;52631.53;5027173;28;19959;-74
2022/12/03 02:17:32;;;;;;;;;;;;;;;-144.99;87.21;52672.31;5023436;28;19995;-74
2022/12/03 02:20:00;;;;;;;;;;;;;;;-144.99;86.98;52680.47;5022347;28;20027;-79
2022/12/03 02:22:30;;;;;;;;;;;;;;;-144.99;86.85;52627.47;5035449;28;19960;-74
2022/12/03 02:25:05;;;;;;;;;;;;;;;-144.99;87.58;52678.44;5017111;28;20403;-72
2022/12/03 02:27:31;;;;;;;;;;;;;;;-144.99;87.97;52664.16;5022244;28;19958;-74
2022/12/03 02:29:58;;;;;;;;;;;;;;;-144.99;87.99;52649.88;5028624;28;20426;-74
2022/12/03 02:32:24;;;;;;;;;;;;;;;-144.99;88.14;52619.31;5017152;28;20059;-74
2022/12/03 02:35:14;;;;;;;;;;;;;;;-144.99;87.90;52674.34;5132813;27;20039;-69
2022/12/03 02:37:42;;;;;;;;;;;;;;;-144.99;87.83;52680.47;5085998;28;20112;-70
2022/12/03 02:40:10;;;;;;;;;;;;;;;-144.99;87.65;52668.22;5085953;28;19948;-70
2022/12/03 02:42:36;;;;;;;;;;;;;;;-144.99;88.11;52656.00;5073649;28;19970;-70
2022/12/03 02:45:04;;;;;;;;;;;;;;;-144.99;87.93;52672.31;5084014;28;19963;-70
2022/12/03 02:47:33;;;;;;;;;;;;;;;-144.99;87.30;52645.81;5084211;28;19984;-72
2022/12/03 02:49:59;;;;;;;;;;;;;;;-144.99;87.81;52688.63;5086802;28;20760;-69
2022/12/03 02:52:27;;;;;;;;;;;;;;;-144.99;87.42;52678.44;5078613;28;20416;-67
2022/12/03 02:54:54;;;;;;;;;;;;;;;-144.99;87.66;52611.16;5060706;28;19961;-67
2022/12/03 02:57:21;;;;;;;;;;;;;;;-144.99;87.41;52615.25;5064399;28;19933;-67
2022/12/03 02:59:47;;;;;;;;;;;;;;;-144.99;87.26;52631.53;5064573;28;19997;-70
2022/12/03 03:02:14;;;;;;;;;;;;;;;-144.99;87.67;52664.16;5065098;28;19924;-70
2022/12/03 03:04:41;;;;;;;;;;;;;;;-144.99;87.61;52684.53;5071390;28;19970;-70
2022/12/03 03:07:09;;;;;;;;;;;;;;;-144.99;87.26;52668.22;5064844;28;19940;-71
2022/12/03 03:09:37;;;;;;;;;;;;;;;-144.99;87.71;52680.47;5063605;28;19968;-73
2022/12/03 03:12:04;;;;;;;;;;;;;;;-144.99;87.83;52635.63;5062025;28;19965;-75
2022/12/03 03:14:32;;;;;;;;;;;;;;;-144.99;87.91;52651.94;5064138;28;20312;-76
2022/12/03 03:17:00;;;;;;;;;;;;;;;-144.99;88.12;52680.47;5062875;28;19943;-77
2022/12/03 03:19:27;;;;;;;;;;;;;;;-144.99;87.82;52702.88;5065885;28;20501;-76
2022/12/03 03:21:54;;;;;;;;;;;;;;;-144.99;88.55;52639.69;5084207;28;19913;-79
2022/12/03 03:24:21;;;;;;;;;;;;;;;-144.99;88.21;52664.16;5087833;28;19941;-80
2022/12/03 03:26:50;;;;;;;;;;;;;;;-144.99;87.95;52668.22;5061540;28;20343;-75
2022/12/03 03:29:16;;;;;;;;;;;;;;;-144.99;88.58;52664.16;5065081;28;20009;-73
2022/12/03 03:31:44;;;;;;;;;;;;;;;-144.99;88.92;52676.38;5066432;28;19999;-73
2022/12/03 03:34:11;;;;;;;;;;;;;;;-144.99;88.30;52668.22;5066403;28;19967;-72
2022/12/03 03:36:37;;;;;;;;;;;;;;;-144.99;88.20;52631.53;5061629;28;19939;-71
2022/12/03 03:39:05;;;;;;;;;;;;;;;-144.99;88.14;52656.00;5067979;28;19950;-71
2022/12/03 03:41:32;;;;;;;;;;;;;;;-144.99;87.88;52660.09;5070083;28;20173;-70
2022/12/03 03:44:00;;;;;;;;;;;;;;;-144.99;87.97;52672.31;5062664;28;19939;-70
2022/12/03 03:46:28;;;;;;;;;;;;;;;-144.99;88.32;52643.78;5060610;28;20011;-70
2022/12/03 03:48:54;;;;;;;;;;;;;;;-144.99;88.53;52656.00;5061468;28;19943;-70
2022/12/03 03:51:21;;;;;;;;;;;;;;;-144.99;88.79;52656.00;5053719;28;19962;-71
2022/12/03 03:53:49;;;;;;;;;;;;;;;-144.99;89.16;52643.78;5054699;28;19963;-71
2022/12/03 03:56:17;;;;;;;;;;;;;;;-144.99;88.56;52631.53;5055627;28;19960;-71
2022/12/03 03:58:44;;;;;;;;;;;;;;;-144.99;88.36;52651.94;5058715;28;19925;-70
2022/12/03 04:01:13;;;;;;;;;;;;;;;-144.99;88.31;52662.13;5053233;28;19961;-70
2022/12/03 04:03:39;;;;;;;;;;;;;;;-144.99;88.48;52680.47;5060247;28;19937;-71
2022/12/03 04:06:06;;;;;;;;;;;;;;;-144.99;88.95;52709.00;5068482;28;19930;-71
2022/12/03 04:08:34;;;;;;;;;;;;;;;-144.99;88.87;52676.38;5074096;28;19971;-70
2022/12/03 04:13:44;;;;;;;;;;;;;;;-144.99;88.88;52668.22;5062734;28;19974;-70
2022/12/03 04:16:12;;;;;;;;;;;;;;;-144.99;88.84;52692.69;5068039;28;20004;-70
2022/12/03 04:18:45;;;;;;;;;;;;;;;-144.99;88.21;52698.81;5070502;28;20444;-68
2022/12/03 04:23:56;;;;;;;;;;;;;;;-144.99;88.46;52627.47;5061107;28;20012;-68
2022/12/03 04:29:07;;;;;;;;;;;;;;;-144.99;88.39;52647.84;5063715;28;20130;-70
2022/12/03 04:37:04;;;;;;;;;;;;;;;-144.99;88.30;52676.38;5054196;28;19976;-70
2022/12/03 04:39:31;;;;;;;;;;;;;;;-144.99;88.41;52668.22;5045460;28;19943;-69
2022/12/03 04:41:57;;;;;;;;;;;;;;;-144.99;88.16;52656.00;5048858;28;19962;-67
2022/12/03 04:44:36;;;;;;;;;;;;;;;-144.99;87.83;52676.38;5052519;28;19940;-70
2022/12/03 04:47:05;;;;;;;;;;;;;;;-144.99;87.42;52647.84;5055904;28;19929;-71
2022/12/03 04:49:32;;;;;;;;;;;;;;;-144.99;87.28;52656.00;5049449;28;19993;-70
2022/12/03 04:51:59;;;;;;;;;;;;;;;-144.99;87.49;52684.53;5047873;28;20049;-70
2022/12/03 04:54:26;;;;;;;;;;;;;;;-144.99;87.87;52676.38;5047083;28;19962;-72
2022/12/03 04:56:52;;;;;;;;;;;;;;;-144.99;87.91;52656.00;5048976;28;20001;-68
2022/12/03 04:59:19;;;;;;;;;;;;;;;-144.99;87.56;52674.34;5049493;28;19993;-67
2022/12/03 05:01:46;;;;;;;;;;;;;;;-144.99;88.15;52656.00;5055209;28;20011;-71
2022/12/03 05:04:14;;;;;;;;;;;;;;;-144.99;88.17;52664.16;5057831;28;19939;-70
2022/12/03 05:06:41;;;;;;;;;;;;;;;-144.99;88.00;52678.44;5048912;28;19961;-71
2022/12/03 05:09:08;;;;;;;;;;;;;;;-144.99;88.03;52678.44;5049963;28;19937;-71
2022/12/03 05:11:36;;;;;;;;;;;;;;;-144.99;88.05;52660.09;5049063;28;20359;-71
2022/12/03 05:14:04;;;;;;;;;;;;;;;-144.99;88.94;52696.78;5052789;28;19961;-72
2022/12/03 05:16:30;;;;;;;;;;;;;;;-144.99;89.09;52674.34;5045658;28;19950;-71
2022/12/03 05:18:57;;;;;;;;;;;;;;;-144.99;88.53;52651.94;5050775;28;20337;-71
2022/12/03 05:21:25;;;;;;;;;;;;;;;-144.99;88.52;52678.44;5054134;28;20404;-71
2022/12/03 05:23:51;;;;;;;;;;;;;;;-144.99;88.88;52643.78;5048067;28;19928;-71
2022/12/03 05:26:18;;;;;;;;;;;;;;;-144.99;89.48;52678.44;5054195;28;19945;-66
2022/12/03 05:28:44;;;;;;;;;;;;;;;-144.99;89.05;52684.53;5045599;28;20447;-67
2022/12/03 05:31:11;;;;;;;;;;;;;;;-144.99;89.53;52647.84;5051583;28;19955;-65
2022/12/03 05:33:37;;;;;;;;;;;;;;;-144.99;89.34;52656.00;5048426;28;20013;-67
2022/12/03 05:36:04;;;;;;;;;;;;;;;-144.99;89.24;52668.22;5047349;28;19949;-67
2022/12/03 05:38:32;;;;;;;;;;;;;;;-144.99;90.28;52680.47;5044930;28;19939;-67
2022/12/03 05:40:58;;;;;;;;;;;;;;;-144.99;89.78;52656.00;5051052;28;20012;-67
2022/12/03 05:43:24;;;;;;;;;;;;;;;-144.99;89.53;52641.72;5047593;28;20410;-68
2022/12/03 05:45:50;;;;;;;;;;;;;;;-144.99;89.13;52637.66;5047225;28;19943;-68
2022/12/03 05:48:17;;;;;;;;;;;;;;;-144.99;88.81;52686.59;5046143;28;19979;-71
2022/12/03 05:50:45;;;;;;;;;;;;;;;-144.99;88.95;52637.66;5053985;28;19961;-74
2022/12/03 05:53:12;;;;;;;;;;;;;;;-144.99;89.63;52651.94;5052951;28;20419;-72
2022/12/03 05:55:40;;;;;;;;;;;;;;;-144.99;89.37;52664.16;5048558;28;19958;-73
2022/12/03 05:58:07;;;;;;;;;;;;;;;-144.99;89.06;52676.38;5047735;28;20047;-71
2022/12/03 06:00:36;;;;;;;;;;;;;;;-144.99;89.05;52684.53;5046413;28;20119;-75
2022/12/03 06:03:03;;;;;;;;;;;;;;;-144.99;89.28;52653.97;5048164;28;19944;-74
2022/12/03 06:05:30;;;;;;;;;;;;;;;-144.99;89.38;52662.13;5046913;28;19991;-75
2022/12/03 06:07:56;;;;;;;;;;;;;;;-144.99;89.27;52664.16;5052060;28;20303;-73
2022/12/03 06:10:24;;;;;;;;;;;;;;;-144.99;89.44;52641.72;5046038;28;20141;-72
2022/12/03 06:12:52;;;;;;;;;;;;;;;-144.99;89.75;52676.38;5050669;28;19966;-72
2022/12/03 06:15:19;;;;;;;;;;;;;;;-144.99;89.58;52713.09;5045828;28;20044;-72
2022/12/03 06:17:46;;;;;;;;;;;;;;;-144.99;89.13;52668.22;5054467;28;19990;-71
2022/12/03 06:20:13;;;;;;;;;;;;;;;-144.99;89.41;52684.53;5050990;28;20016;-71
2022/12/03 06:22:42;;;;;;;;;;;;;;;-144.99;89.30;52674.34;5046708;28;20048;-70
2022/12/03 06:25:10;;;;;;;;;;;;;;;-144.99;90.37;52676.38;5054375;28;20011;-68
2022/12/03 06:27:36;;;;;;;;;;;;;;;-144.99;91.16;52662.13;5045633;28;19945;-70
2022/12/03 06:30:07;;;;;;;;;;;;;;;-144.99;92.09;52676.38;5045526;28;19955;-70
2022/12/03 06:32:33;;;;;;;;;;;;;;;-144.99;91.00;52639.69;5050676;28;20007;-70
2022/12/03 06:35:00;;;;;;;;;;;;;;;-144.99;90.62;52676.38;5052416;28;19954;-70
2022/12/03 06:37:27;;;;;;;;;;;;;;;-144.99;90.30;52668.22;5061691;28;19949;-71
2022/12/03 06:39:53;;;;;;;;;;;;;;;-144.99;91.05;52660.09;5066733;28;19962;-71
2022/12/03 06:42:20;;;;;;;;;;;;;;;-144.99;91.07;52643.78;5064080;28;20473;-71
2022/12/03 06:44:46;;;;;;;;;;;;;;;-144.99;90.63;52692.69;5050628;28;20412;-69
2022/12/03 06:47:14;;;;;;;;;;;;;;;-144.99;90.39;52656.00;5047298;28;20100;-69
2022/12/03 06:49:41;;;;;;;;;;;;;;;-144.99;90.11;52672.31;5047055;28;20369;-69
2022/12/03 06:52:07;;;;;;;;;;;;;;;-144.99;90.32;52680.47;5046681;28;19961;-70
2022/12/03 06:54:34;;;;;;;;;;;;;;;-144.99;89.92;52676.38;5043450;28;19955;-70
2022/12/03 06:57:00;;;;;;;;;;;;;;;-144.99;90.16;52639.69;5047354;28;20073;-71
2022/12/03 06:59:27;;;;;;;;;;;;;;;-144.99;89.95;52700.84;5043984;28;19939;-66
2022/12/03 07:01:53;;;;;;;;;;;;;;;-144.99;90.16;52615.25;5049473;28;20169;-65
2022/12/03 07:04:21;;;;;;;;;;;;;;;-144.99;90.14;52680.47;5053092;28;19939;-65
2022/12/03 07:06:48;;;;;;;;;;;;;;;-144.99;90.05;52684.53;5047706;28;20405;-65
2022/12/03 07:09:16;;;;;;;;;;;;;;;-144.99;90.48;52656.00;5046182;28;19993;-65
2022/12/03 07:11:42;;;;;;;;;;;;;;;-144.99;90.62;52680.47;5051527;28;20419;-71
2022/12/03 07:14:09;;;;;;;;;;;;;;;-144.99;90.37;52721.22;5048779;28;19994;-71
2022/12/03 07:16:36;;;;;;;;;;;;;;;-144.99;90.26;52668.22;5047010;28;20133;-70
2022/12/03 07:19:03;;;;;;;;;;;;;;;-144.99;90.25;52672.31;5042296;28;19965;-71
2022/12/03 07:21:32;;;;;;;;;;;;;;;-144.99;90.04;52653.97;5049607;28;20026;-71
2022/12/03 07:23:58;;;;;;;;;;;;;;;-144.99;89.95;52700.84;5050122;28;20476;-71
2022/12/03 07:26:25;;;;;;;;;;;;;;;-144.99;90.28;52643.78;5058212;28;19928;-71
2022/12/03 07:28:51;;;;;;;;;;;;;;;-144.99;90.16;52694.72;5047299;28;20376;-69
2022/12/03 07:31:18;;;;;;;;;;;;;;;-144.99;90.17;52647.84;5052470;28;20486;-69
2022/12/03 07:33:44;;;;;;;;;;;;;;;-144.99;90.18;52696.78;5054626;28;19967;-69
2022/12/03 07:36:11;;;;;;;;;;;;;;;-144.99;90.42;52692.69;5050740;28;19982;-70
2022/12/03 07:38:39;;;;;;;;;;;;;;;-144.99;90.44;52656.00;5051596;28;20380;-68
2022/12/03 07:41:05;;;;;;;;;;;;;;;-144.99;90.70;52696.78;5048750;28;19974;-69
2022/12/03 07:43:32;;;;;;;;;;;;;;;-144.99;90.70;52656.00;5049183;28;19932;-69
2022/12/03 07:45:59;;;;;;;;;;;;;;;-144.99;90.79;52684.53;5046638;28;19943;-68
2022/12/03 07:48:25;;;;;;;;;;;;;;;-144.99;91.09;52660.09;5051466;28;19987;-71
2022/12/03 07:50:52;;;;;;;;;;;;;;;-144.99;91.08;52676.38;5050916;28;19994;-71
2022/12/03 07:53:19;;;;;;;;;;;;;;;-144.99;91.27;52704.94;5048591;28;19943;-70
2022/12/03 07:55:46;;;;;;;;;;;;;;;-144.99;91.72;52662.13;5050255;28;19960;-74
2022/12/03 07:58:15;;;;;;;;;;;;;;;-144.99;92.01;52639.69;5052036;28;20390;-71
2022/12/03 08:00:41;;;;;;;;;;;;;;;-144.99;91.95;52651.94;5046150;28;19929;-70
2022/12/03 08:03:08;;;;;;;;;;;;;;;-144.99;92.10;52696.78;5050961;28;19965;-73
2022/12/03 08:05:34;;;;;;;;;;;;;;;-144.99;92.04;52651.94;5051575;28;19951;-71
2022/12/03 08:08:01;;;;;;;;;;;;;;;-144.99;92.08;52627.47;5050274;28;19940;-73
2022/12/03 08:10:28;;;;;;;;;;;;;;;-144.99;93.48;52668.22;5047805;28;19936;-69
2022/12/03 08:12:56;;;;;;;;;;;;;;;-144.99;93.15;52700.84;5038514;28;19959;-71
2022/12/03 08:15:24;;;;;;;;;;;;;;;-144.99;92.27;52688.63;5049947;22;19957;-74
2022/12/03 08:17:53;;;;;;;;;;;;;;;-144.99;93.98;52692.69;5014516;28;19947;-74
2022/12/03 08:20:20;;;;;;;;;;;;;;;-144.99;92.08;52668.22;5018602;28;19944;-74
2022/12/03 08:22:47;;;;;;;;;;;;;;;-144.99;91.16;52639.69;5027251;28;20004;-75
2022/12/03 08:25:17;;;;;;;;;;;;;;;-144.99;90.04;52680.47;5026330;28;19957;-75
2022/12/03 08:27:46;;;;;;;;;;;;;;;-144.99;90.20;52664.16;5025035;28;19936;-77
2022/12/03 08:30:15;;;;;;;;;;;;;;;-144.99;90.12;52672.31;5027643;28;19973;-75
2022/12/03 08:32:42;;;;;;;;;;;;;;;-144.99;90.16;52603.00;5022837;28;19937;-76
2022/12/03 08:35:11;;;;;;;;;;;;;;;-144.99;90.71;52631.53;5028507;28;19980;-76
2022/12/03 08:37:37;;;;;;;;;;;;;;;-144.99;89.49;52672.31;5025720;28;19956;-75
2022/12/03 08:40:19;;;;;;;;;;;;;;;-144.99;89.64;52658.03;5029904;28;19939;-76
2022/12/03 08:42:45;;;;;;;;;;;;;;;-144.99;89.24;52641.72;5024899;28;19936;-75
2022/12/03 08:45:33;;;;;;;;;;;;;;;-144.99;88.63;52651.94;5029323;28;19956;-76
2022/12/03 08:48:01;;;;;;;;;;;;;;;-144.99;88.16;52684.53;5030320;28;19945;-76
2022/12/03 08:50:29;;;;;;;;;;;;;;;-144.99;88.14;52680.47;5027893;28;19996;-76
2022/12/03 08:52:59;;;;;;;;;;;;;;;-144.99;87.72;52645.81;5030515;28;20452;-76
2022/12/03 08:55:32;;;;;;;;;;;;;;;-144.99;87.97;52680.47;5019461;28;19964;-75
2022/12/03 08:57:59;;;;;;;;;;;;;;;-144.99;86.88;52676.38;5032294;28;19970;-76
2022/12/03 09:00:27;;;;;;;;;;;;;;;-144.99;86.78;52668.22;5031645;28;19942;-75
2022/12/03 09:02:54;;;;;;;;;;;;;;;-144.99;86.72;52672.31;5032215;28;19943;-75
2022/12/03 09:05:22;;;;;;;;;;;;;;;-144.99;86.04;52656.00;5032760;28;19947;-76
2022/12/03 09:07:49;;;;;;;;;;;;;;;-144.99;86.02;52704.94;5033447;28;19934;-75
2022/12/03 09:10:18;;;;;;;;;;;;;;;-144.99;86.72;52684.53;5033303;28;19945;-74
2022/12/03 09:12:45;;;;;;;;;;;;;;;-144.99;86.57;52674.34;5032823;28;19926;-75
2022/12/03 09:15:11;;;;;;;;;;;;;;;-144.99;85.85;52651.94;5032551;28;19925;-75
2022/12/03 09:17:39;;;;;;;;;;;;;;;-144.99;85.91;52709.00;5033163;28;20140;-75
2022/12/03 09:20:06;;;;;;;;;;;;;;;-144.99;85.94;52670.28;5033313;28;19948;-75
2022/12/03 09:22:33;;;;;;;;;;;;;;;-144.99;85.28;52674.34;5032991;28;19999;-75
2022/12/03 09:24:59;;;;;;;;;;;;;;;-144.99;85.11;52692.69;5034657;28;19953;-76
2022/12/03 09:27:26;;;;;;;;;;;;;;;-144.99;85.33;52678.44;5033597;28;19948;-75
2022/12/03 09:29:52;;;;;;;;;;;;;;;-144.99;85.44;52639.69;5034698;28;19931;-75
2022/12/03 09:32:19;;;;;;;;;;;;;;;-144.99;85.37;52680.47;5034540;28;19928;-76
2022/12/03 09:34:47;;;;;;;;;;;;;;;-144.99;85.43;52656.00;5020541;28;19964;-75
2022/12/03 09:37:13;;;;;;;;;;;;;;;-144.99;85.56;52651.94;5011317;28;19940;-75
2022/12/03 09:39:40;;;;;;;;;;;;;;;-144.99;85.40;52711.03;5010814;28;20105;-75
2022/12/03 09:42:06;;;;;;;;;;;;;;;-144.99;85.26;52676.38;5010375;28;19945;-75
2022/12/03 09:44:34;;;;;;;;;;;;;;;-144.99;85.23;52631.53;5010115;28;20450;-75
2022/12/03 09:47:01;;;;;;;;;;;;;;;-144.99;84.77;52643.78;5010293;28;19998;-75
2022/12/03 09:49:28;;;;;;;;;;;;;;;-144.99;84.35;52672.31;5007779;28;19996;-75
2022/12/03 09:51:57;;;;;;;;;;;;;;;-144.99;84.05;52684.53;5009164;28;19946;-75
2022/12/03 09:54:28;;;;;;;;;;;;;;;-144.99;83.48;52656.00;4998497;28;19961;-75
2022/12/03 09:56:56;;;;;;;;;;;;;;;-144.99;83.47;52668.22;5010253;28;20100;-75
2022/12/03 09:59:23;;;;;;;;;;;;;;;-144.99;83.11;52700.84;5010233;28;20453;-75
2022/12/03 10:01:50;;;;;;;;;;;;;;;-144.99;83.02;52684.53;5015632;28;19975;-74
2022/12/03 10:04:16;;;;;;;;;;;;;;;-144.99;83.05;52647.84;5030067;28;20031;-75
2022/12/03 10:06:43;;;;;;;;;;;;;;;-144.99;83.26;52684.53;5030250;28;19956;-74
2022/12/03 10:09:11;;;;;;;;;;;;;;;-144.99;83.45;52684.53;5020726;28;20516;-75
2022/12/03 10:11:38;;;;;;;;;;;;;;;-144.99;83.59;52678.44;5018616;28;19944;-74
2022/12/03 10:14:04;;;;;;;;;;;;;;;-144.99;83.41;52664.16;5008707;28;20463;-75
2022/12/03 10:16:32;;;;;;;;;;;;;;;-144.99;83.72;52700.84;5007584;28;20431;-75
2022/12/03 10:19:00;;;;;;;;;;;;;;;-144.99;83.73;52656.00;5010324;28;19940;-75
2022/12/03 10:21:30;;;;;;;;;;;;;;;-144.99;83.80;52664.16;5002779;28;19995;-75
2022/12/03 10:24:15;;;;;;;;;;;;;;;-144.99;83.56;52619.31;5008838;28;20469;-75
2022/12/03 10:26:43;;;;;;;;;;;;;;;-144.99;83.62;52656.00;5005861;28;19930;-75
2022/12/03 10:29:11;;;;;;;;;;;;;;;-144.99;82.97;52680.47;5008978;28;19944;-75
2022/12/03 10:31:38;;;;;;;;;;;;;;;-144.99;82.40;52676.38;5007931;28;20008;-76
2022/12/03 10:34:05;;;;;;;;;;;;;;;-144.99;81.65;52629.50;5004793;28;19948;-75
2022/12/03 10:36:32;;;;;;;;;;;;;;;-144.99;81.81;52653.97;5010685;28;19962;-75
2022/12/03 10:39:09;;;;;;;;;;;;;;;-144.99;81.26;52692.69;5010884;28;19925;-75
2022/12/03 10:41:36;;;;;;;;;;;;;;;-144.99;81.01;52680.47;5006847;28;19941;-75
2022/12/03 10:44:18;;;;;;;;;;;;;;;-144.99;80.98;52668.22;5000983;28;20164;-75
2022/12/03 10:46:45;;;;;;;;;;;;;;;-144.99;80.86;52635.63;5007329;28;19980;-75
2022/12/03 10:49:15;;;;;;;;;;;;;;;-144.99;80.78;52631.53;5016408;28;19942;-75
2022/12/03 10:51:42;;;;;;;;;;;;;;;-144.99;79.96;52668.22;5012367;28;20377;-74
2022/12/03 10:54:15;;;;;;;;;;;;;;;-144.99;79.64;52692.69;5007979;28;19947;-76
2022/12/03 10:56:42;;;;;;;;;;;;;;;-144.99;79.64;52647.84;5013874;28;19972;-75
2022/12/03 10:59:12;;;;;;;;;;;;;;;-144.99;78.86;52651.94;5010574;28;19987;-75
2022/12/03 11:01:40;;;;;;;;;;;;;;;-144.99;78.45;52639.69;5009858;28;19990;-74
2022/12/03 11:04:14;;;;;;;;;;;;;;;-144.99;78.80;52656.00;5012476;28;20022;-75
2022/12/03 11:06:41;;;;;;;;;;;;;;;-144.99;79.14;52615.25;5009197;28;20005;-75
2022/12/03 11:09:15;;;;;;;;;;;;;;;-144.99;79.34;52670.28;5014533;28;19942;-75
2022/12/03 11:11:41;;;;;;;;;;;;;;;-144.99;79.85;52656.00;5006060;28;19925;-75
2022/12/03 11:14:10;;;;;;;;;;;;;;;-144.99;78.58;52647.84;5014387;28;19926;-75
2022/12/03 11:17:07;;;;;;;;;;;;;;;-144.99;78.24;52635.63;5012275;28;19964;-75
2022/12/03 11:19:45;;;;;;;;;;;;;;;-144.99;77.47;52641.72;5005155;28;20164;-75
2022/12/03 11:22:30;;;;;;;;;;;;;;;-144.99;77.98;52660.09;5013343;28;19947;-75
2022/12/03 11:25:15;;;;;;;;;;;;;;;-144.99;78.05;52668.22;5011939;28;20402;-75
2022/12/03 11:27:43;;;;;;;;;;;;;;;-144.99;78.29;52649.88;5004723;28;20006;-75
2022/12/03 11:30:10;;;;;;;;;;;;;;;-144.99;78.29;52664.16;5012111;28;19926;-75
2022/12/03 11:33:05;;;;;;;;;;;;;;;-144.99;77.88;52656.00;5014159;28;20304;-75
2022/12/03 11:36:04;;;;;;;;;;;;;;;-144.99;77.43;52647.84;5011432;28;19941;-74
2022/12/03 11:38:40;;;;;;;;;;;;;;;-144.99;77.52;52643.78;5010824;28;19943;-76
2022/12/03 11:41:07;;;;;;;;;;;;;;;-144.99;77.60;52631.53;5013230;28;19943;-75
2022/12/03 11:43:52;;;;;;;;;;;;;;;-144.99;77.37;52664.16;5012736;28;19990;-75
2022/12/03 11:46:19;;;;;;;;;;;;;;;-144.99;76.97;52660.09;5013290;28;19961;-75
2022/12/03 11:48:46;;;;;;;;;;;;;;;-144.99;77.07;52660.09;5012628;28;20421;-75
2022/12/03 11:51:16;;;;;;;;;;;;;;;-144.99;76.96;52668.22;5012265;28;19943;-75
2022/12/03 11:53:43;;;;;;;;;;;;;;;-144.99;76.43;52635.63;5012688;28;19936;-74
2022/12/03 11:56:17;;;;;;;;;;;;;;;-144.99;76.46;52672.31;5011071;28;20023;-75
2022/12/03 11:58:44;;;;;;;;;;;;;;;-144.99;76.25;52651.94;5012057;28;19937;-75
2022/12/03 12:01:11;;;;;;;;;;;;;;;-144.99;75.91;52668.22;5013205;28;19950;-75
2022/12/03 12:03:42;;;;;;;;;;;;;;;-144.99;75.73;52647.84;5011328;28;20010;-75
2022/12/03 12:06:09;;;;;;;;;;;;;;;-144.99;75.59;52658.03;5010715;28;19952;-75
2022/12/03 12:08:39;;;;;;;;;;;;;;;-144.99;75.67;52702.88;5012328;28;19947;-75
2022/12/03 12:11:16;;;;;;;;;;;;;;;-144.99;75.87;52664.16;5021051;28;20375;-76
2022/12/03 12:13:53;;;;;;;;;;;;;;;-144.99;76.10;52647.84;5009858;28;19942;-74
2022/12/03 12:16:53;;;;;;;;;;;;;;;-144.99;76.16;52668.22;5013708;28;19964;-75
2022/12/03 12:19:35;;;;;;;;;;;;;;;-144.99;76.41;52647.84;5011475;28;19943;-75
2022/12/03 12:22:35;;;;;;;;;;;;;;;-144.99;76.82;52645.81;5011379;28;19936;-76
2022/12/03 12:25:04;;;;;;;;;;;;;;;-144.99;76.83;52647.84;4943288;29;20344;-75
2022/12/03 12:27:32;;;;;;;;;;;;;;;-144.99;77.14;52641.72;4944616;29;19930;-76
2022/12/03 12:29:59;;;;;;;;;;;;;;;-144.99;77.01;52696.78;4973663;28;19933;-75
2022/12/03 12:32:27;;;;;;;;;;;;;;;-144.99;76.94;52664.16;5011509;28;20073;-75
2022/12/03 12:34:55;;;;;;;;;;;;;;;-144.99;77.33;52635.63;5011393;28;20051;-76
2022/12/03 12:37:22;;;;;;;;;;;;;;;-144.99;77.30;52651.94;5011404;28;19984;-75
2022/12/03 12:39:52;;;;;;;;;;;;;;;-144.99;77.36;52639.69;5011634;28;19941;-75
2022/12/03 12:42:33;;;;;;;;;;;;;;;-144.99;77.30;52645.81;5014377;28;19926;-74
2022/12/03 12:45:05;;;;;;;;;;;;;;;-144.99;77.48;52639.69;5028197;28;20009;-75
2022/12/03 12:47:32;;;;;;;;;;;;;;;-144.99;77.44;52631.53;5025141;28;19945;-75
2022/12/03 12:49:58;;;;;;;;;;;;;;;-144.99;77.50;52688.63;5020560;28;19946;-75